createdAt,value
2022-11-09T00:01:33.016Z,95560.69
2022-11-09T00:03:35.741Z,95549.66
2022-11-09T00:05:38.768Z,95354.38
2022-11-09T00:07:41.504Z,95559.34
2022-11-09T00:09:45.736Z,95559.34
2022-11-09T00:11:48.449Z,95557.47
2022-11-09T00:13:51.228Z,95555.13
2022-11-09T00:15:54.004Z,95638.50
2022-11-09T00:17:56.833Z,95218.66
2022-11-09T00:19:59.589Z,95618.56
2022-11-09T00:22:02.384Z,95454.59
2022-11-09T00:24:05.446Z,95421.47
2022-11-09T00:26:12.012Z,95455.66
2022-11-09T00:28:15.141Z,95585.75
2022-11-09T00:30:17.954Z,95030.31
2022-11-09T00:32:27.590Z,95558.84
2022-11-09T00:34:30.790Z,95638.75
2022-11-09T00:36:34.421Z,95555.59
2022-11-09T00:38:38.348Z,95557.75
2022-11-09T00:40:41.122Z,95533.78
2022-11-09T00:42:46.250Z,94404.75
2022-11-09T00:44:51.677Z,95553.19
2022-11-09T00:46:54.830Z,95555.06
2022-11-09T00:48:57.575Z,95545.91
2022-11-09T00:51:00.699Z,95555.34
2022-11-09T00:53:04.485Z,95550.22
2022-11-09T00:55:07.994Z,95540.00
2022-11-09T00:57:10.761Z,95543.50
2022-11-09T00:59:15.413Z,94221.28
2022-11-09T01:01:19.622Z,95417.47
2022-11-09T01:03:22.993Z,94994.88
2022-11-09T01:05:25.822Z,95120.09
2022-11-09T01:07:28.631Z,95555.59
2022-11-09T01:09:31.408Z,95558.31
2022-11-09T01:11:34.118Z,95563.16
2022-11-09T01:13:37.911Z,95016.34
2022-11-09T01:15:46.685Z,95556.94
2022-11-09T01:17:49.501Z,95558.56
2022-11-09T01:19:53.193Z,95563.72
2022-11-09T01:21:58.579Z,95570.47
2022-11-09T01:24:05.034Z,95558.34
2022-11-09T01:26:10.502Z,95549.72
2022-11-09T01:28:13.424Z,95544.63
2022-11-09T01:30:16.325Z,95543.53
2022-11-09T01:32:20.603Z,95543.78
2022-11-09T01:34:24.401Z,95162.28
2022-11-09T01:36:27.263Z,95547.56
2022-11-09T01:38:30.007Z,95547.03
2022-11-09T01:40:34.238Z,95337.03
2022-11-09T01:42:38.330Z,95548.66
2022-11-09T01:44:41.190Z,95551.63
2022-11-09T01:46:50.825Z,95545.69
2022-11-09T01:49:01.843Z,95604.66
2022-11-09T01:51:10.930Z,94880.38
2022-11-09T01:53:18.230Z,95306.63
2022-11-09T01:55:25.326Z,95455.47
2022-11-09T01:57:31.378Z,95360.50
2022-11-09T01:59:39.098Z,95645.59
2022-11-09T02:01:43.904Z,95558.88
2022-11-09T02:03:49.811Z,95583.66
2022-11-09T02:05:54.191Z,95549.19
2022-11-09T02:07:58.083Z,94942.22
2022-11-09T02:10:05.207Z,95550.81
2022-11-09T02:12:09.236Z,95555.94
2022-11-09T02:14:14.057Z,95472.69
2022-11-09T02:16:17.297Z,95558.63
2022-11-09T02:18:21.463Z,95558.88
2022-11-09T02:20:26.483Z,95558.88
2022-11-09T02:22:29.249Z,95557.28
2022-11-09T02:24:34.054Z,95552.41
2022-11-09T02:26:41.955Z,95560.22
2022-11-09T02:28:47.548Z,95563.75
2022-11-09T02:30:54.616Z,95335.34
2022-11-09T02:33:00.210Z,95478.63
2022-11-09T02:35:03.269Z,95419.91
2022-11-09T02:37:07.716Z,95565.28
2022-11-09T02:39:11.976Z,95568.81
2022-11-09T02:41:15.361Z,95573.44
2022-11-09T02:43:20.466Z,95575.25
2022-11-09T02:45:23.741Z,95584.19
2022-11-09T02:47:26.984Z,95349.38
2022-11-09T02:49:29.956Z,95565.84
2022-11-09T02:51:33.208Z,95258.56
2022-11-09T02:53:37.678Z,95051.59
2022-11-09T02:55:40.428Z,95578.72
2022-11-09T02:57:44.032Z,95299.88
2022-11-09T02:59:49.596Z,95500.47
2022-11-09T03:01:52.351Z,95577.38
2022-11-09T03:03:55.466Z,95576.56
2022-11-09T03:05:59.794Z,95579.81
2022-11-09T03:08:03.081Z,95581.97
2022-11-09T03:10:11.171Z,95580.09
2022-11-09T03:12:29.834Z,95578.47
2022-11-09T03:14:36.942Z,95187.84
2022-11-09T03:16:40.907Z,95638.44
2022-11-09T03:18:43.670Z,95583.03
2022-11-09T03:20:46.500Z,95577.16
2022-11-09T03:22:52.496Z,95151.78
2022-11-09T03:24:55.580Z,95581.97
2022-11-09T03:27:00.067Z,95588.97
2022-11-09T03:29:03.303Z,95575.53
2022-11-09T03:31:07.689Z,95578.75
2022-11-09T03:33:12.590Z,95582.00
2022-11-09T03:35:16.745Z,95580.91
2022-11-09T03:37:19.596Z,95582.56
2022-11-09T03:39:22.620Z,95596.78
2022-11-09T03:41:25.466Z,95597.31
2022-11-09T03:43:30.183Z,95133.94
2022-11-09T03:45:33.109Z,95586.84
2022-11-09T03:47:35.920Z,95579.28
2022-11-09T03:49:38.711Z,95587.66
2022-11-09T03:51:41.447Z,95591.94
2022-11-09T03:53:44.213Z,95597.06
2022-11-09T03:55:46.996Z,95594.34
2022-11-09T03:57:49.993Z,95603.50
2022-11-09T03:59:54.098Z,95614.00
2022-11-09T04:01:57.239Z,95477.34
2022-11-09T04:04:00.037Z,95475.47
2022-11-09T04:06:02.794Z,95620.16
2022-11-09T04:08:06.252Z,95622.03
2022-11-09T04:10:09.554Z,95627.69
2022-11-09T04:12:12.343Z,95625.53
2022-11-09T04:14:15.124Z,95688.25
2022-11-09T04:16:19.234Z,95281.16
2022-11-09T04:18:21.973Z,95634.66
2022-11-09T04:20:24.962Z,95181.28
2022-11-09T04:22:27.724Z,95624.97
2022-11-09T04:24:30.442Z,95626.03
2022-11-09T04:26:33.177Z,95625.22
2022-11-09T04:28:35.944Z,95624.41
2022-11-09T04:30:39.162Z,95558.63
2022-11-09T04:32:43.245Z,95620.38
2022-11-09T04:34:45.967Z,95333.34
2022-11-09T04:36:48.703Z,95615.00
2022-11-09T04:38:51.503Z,95618.50
2022-11-09T04:40:54.252Z,95610.16
2022-11-09T04:42:57.016Z,95609.88
2022-11-09T04:44:59.729Z,95607.16
2022-11-09T04:47:02.486Z,95601.72
2022-11-09T04:49:06.660Z,95581.03
2022-11-09T04:51:11.415Z,95594.69
2022-11-09T04:53:16.362Z,95589.31
2022-11-09T04:55:19.232Z,95580.19
2022-11-09T04:57:22.455Z,95587.16
2022-11-09T04:59:25.158Z,95581.28
2022-11-09T05:01:27.888Z,95581.53
2022-11-09T05:03:30.773Z,95445.34
2022-11-09T05:05:35.927Z,94917.16
2022-11-09T05:07:38.714Z,95199.28
2022-11-09T05:09:41.483Z,95588.25
2022-11-09T05:11:44.196Z,95573.75
2022-11-09T05:13:46.957Z,95569.72
2022-11-09T05:15:49.780Z,95559.22
2022-11-09T05:17:52.553Z,95533.34
2022-11-09T05:19:56.106Z,95563.53
2022-11-09T05:22:21.327Z,95569.97
2022-11-09T05:24:23.031Z,95572.09
2022-11-09T05:26:26.672Z,95571.03
2022-11-09T05:28:29.428Z,95566.19
2022-11-09T05:30:32.720Z,95567.53
2022-11-09T05:32:37.417Z,95565.91
2022-11-09T05:34:40.181Z,95567.75
2022-11-09T05:36:42.893Z,95567.25
2022-11-09T05:38:47.145Z,95565.34
2022-11-09T05:40:50.332Z,95575.81
2022-11-09T05:42:53.067Z,95504.69
2022-11-09T05:44:55.857Z,95572.06
2022-11-09T05:46:58.625Z,95515.38
2022-11-09T05:49:01.423Z,95572.56
2022-11-09T05:51:05.319Z,95179.22
2022-11-09T05:53:08.331Z,95568.78
2022-11-09T05:55:12.557Z,95574.41
2022-11-09T05:57:15.268Z,95478.59
2022-11-09T05:59:17.978Z,95585.97
2022-11-09T06:01:20.769Z,95404.78
2022-11-09T06:03:23.663Z,95590.25
2022-11-09T06:05:26.472Z,95588.91
2022-11-09T06:07:29.294Z,95590.22
2022-11-09T06:09:32.084Z,95518.47
2022-11-09T06:11:36.246Z,95590.19
2022-11-09T06:13:39.369Z,95038.97
2022-11-09T06:15:42.121Z,95605.81
2022-11-09T06:17:44.905Z,95613.31
2022-11-09T06:19:47.722Z,95611.13
2022-11-09T06:21:50.470Z,95605.22
2022-11-09T06:23:53.236Z,95610.63
2022-11-09T06:25:58.981Z,95610.66
2022-11-09T06:28:03.280Z,95612.44
2022-11-09T06:30:07.262Z,95613.47
2022-11-09T06:32:09.998Z,95619.66
2022-11-09T06:34:12.795Z,95621.59
2022-11-09T06:36:15.687Z,95633.19
2022-11-09T06:38:18.516Z,95272.47
2022-11-09T06:40:21.282Z,95627.88
2022-11-09T06:42:24.065Z,95633.13
2022-11-09T06:44:28.266Z,95625.44
2022-11-09T06:46:31.053Z,95643.06
2022-11-09T06:48:34.162Z,95644.41
2022-11-09T06:50:37.002Z,95636.09
2022-11-09T06:52:39.762Z,95633.50
2022-11-09T06:54:42.576Z,95651.16
2022-11-09T06:56:45.323Z,95548.78
2022-11-09T06:58:48.094Z,95647.41
2022-11-09T07:00:52.206Z,95654.34
2022-11-09T07:02:55.055Z,95660.44
2022-11-09T07:04:57.827Z,95676.00
2022-11-09T07:07:00.981Z,95691.41
2022-11-09T07:09:03.829Z,95298.72
2022-11-09T07:11:07.520Z,95720.31
2022-11-09T07:13:11.033Z,95698.91
2022-11-09T07:15:13.998Z,95704.41
2022-11-09T07:17:18.152Z,95701.94
2022-11-09T07:19:20.949Z,95699.75
2022-11-09T07:21:23.744Z,95687.47
2022-11-09T07:23:26.493Z,95699.09
2022-11-09T07:25:29.341Z,95696.69
2022-11-09T07:27:32.104Z,95711.38
2022-11-09T07:29:34.859Z,95701.25
2022-11-09T07:31:37.625Z,95709.91
2022-11-09T07:33:41.763Z,95713.72
2022-11-09T07:35:44.855Z,95722.59
2022-11-09T07:37:47.646Z,95722.91
2022-11-09T07:39:50.427Z,95726.66
2022-11-09T07:41:53.127Z,95735.81
2022-11-09T07:43:55.910Z,95726.13
2022-11-09T07:45:58.888Z,95765.13
2022-11-09T07:48:03.892Z,95737.97
2022-11-09T07:50:08.463Z,95733.13
2022-11-09T07:52:11.238Z,95731.53
2022-11-09T07:54:13.962Z,95723.47
2022-11-09T07:56:16.690Z,95722.94
2022-11-09T07:58:19.359Z,95714.63
2022-11-09T08:00:23.780Z,95116.47
2022-11-09T08:02:26.864Z,95717.63
2022-11-09T08:04:29.681Z,95735.91
2022-11-09T08:06:34.092Z,95717.31
2022-11-09T08:08:36.842Z,95725.72
2022-11-09T08:10:40.380Z,95750.22
2022-11-09T08:12:43.120Z,95718.47
2022-11-09T08:14:45.881Z,95730.09
2022-11-09T08:16:48.568Z,95748.09
2022-11-09T08:18:51.426Z,95742.44
2022-11-09T08:20:54.178Z,95739.16
2022-11-09T08:23:03.371Z,95735.13
2022-11-09T08:25:07.527Z,95721.41
2022-11-09T08:27:10.221Z,95729.47
2022-11-09T08:29:15.548Z,95718.19
2022-11-09T08:31:18.290Z,95735.41
2022-11-09T08:33:21.010Z,95723.03
2022-11-09T08:35:25.098Z,95717.94
2022-11-09T08:37:27.814Z,95730.66
2022-11-09T08:39:31.920Z,95725.31
2022-11-09T08:41:34.704Z,95721.28
2022-11-09T08:43:37.523Z,95732.88
2022-11-09T08:45:41.596Z,95741.78
2022-11-09T08:47:45.017Z,95821.78
2022-11-09T08:49:48.385Z,95716.75
2022-11-09T08:51:51.616Z,95432.38
2022-11-09T08:53:54.339Z,95716.78
2022-11-09T08:55:59.390Z,95720.56
2022-11-09T08:58:03.499Z,95720.28
2022-11-09T09:00:07.623Z,95730.81
2022-11-09T09:02:10.673Z,95157.94
2022-11-09T09:04:13.464Z,95730.28
2022-11-09T09:06:16.200Z,95731.88
2022-11-09T09:08:23.143Z,95735.66
2022-11-09T09:10:26.336Z,95295.31
2022-11-09T09:12:30.486Z,95595.53
2022-11-09T09:14:33.435Z,95733.78
2022-11-09T09:16:36.365Z,95602.00
2022-11-09T09:18:39.169Z,95741.88
2022-11-09T09:20:42.737Z,95409.16
2022-11-09T09:22:45.535Z,95591.22
2022-11-09T09:24:48.363Z,95724.91
2022-11-09T09:26:51.165Z,95720.84
2022-11-09T09:28:55.433Z,95728.66
2022-11-09T09:30:59.558Z,95728.38
2022-11-09T09:33:02.569Z,95366.16
2022-11-09T09:35:07.993Z,95550.47
2022-11-09T09:37:10.674Z,95744.38
2022-11-09T09:39:13.433Z,95354.28
2022-11-09T09:41:23.084Z,95741.59
2022-11-09T09:43:30.963Z,95563.66
2022-11-09T09:45:37.919Z,95824.59
2022-11-09T09:47:50.428Z,95751.94
2022-11-09T09:49:57.320Z,95816.25
2022-11-09T09:52:06.263Z,95643.94
2022-11-09T09:54:18.611Z,95738.41
2022-11-09T09:56:24.487Z,95745.09
2022-11-09T09:58:28.956Z,95486.69
2022-11-09T10:00:38.693Z,95249.72
2022-11-09T10:02:41.461Z,95752.66
2022-11-09T10:04:44.297Z,95751.03
2022-11-09T10:07:00.500Z,95746.88
2022-11-09T10:09:15.300Z,95748.16
2022-11-09T10:11:28.500Z,95744.94
2022-11-09T10:13:46.263Z,95747.13
2022-11-09T10:15:55.195Z,95724.66
2022-11-09T10:18:10.385Z,95737.38
2022-11-09T10:20:30.057Z,95739.53
2022-11-09T10:22:41.715Z,95747.81
2022-11-09T10:25:18.661Z,95732.25
2022-11-09T10:27:27.200Z,95726.72
2022-11-09T10:29:36.880Z,95729.31
2022-11-09T10:31:42.464Z,95725.84
2022-11-09T10:33:47.440Z,95740.16
2022-11-09T10:35:55.761Z,95731.13
2022-11-09T10:37:58.535Z,95188.34
2022-11-09T10:40:05.047Z,95718.34
2022-11-09T10:42:26.170Z,95723.44
2022-11-09T10:44:47.746Z,95714.81
2022-11-09T10:47:13.517Z,95715.03
2022-11-09T10:49:35.131Z,95721.50
2022-11-09T10:51:56.200Z,95712.13
2022-11-09T10:54:20.843Z,95309.50
2022-11-09T10:57:05.606Z,95713.41
2022-11-09T10:59:48.339Z,95714.56
2022-11-09T11:02:42.918Z,95718.66
2022-11-09T11:05:32.391Z,95721.19
2022-11-09T11:07:53.575Z,95714.38
2022-11-09T11:10:20.623Z,95665.56
2022-11-09T11:12:42.194Z,95713.88
2022-11-09T11:15:03.374Z,95713.81
2022-11-09T11:17:27.206Z,95702.72
2022-11-09T11:19:49.694Z,95741.88
2022-11-09T11:22:23.629Z,95692.09
2022-11-09T11:24:54.396Z,95687.53
2022-11-09T11:27:20.455Z,95693.44
2022-11-09T11:29:48.679Z,95686.97
2022-11-09T11:32:12.858Z,95693.41
2022-11-09T11:34:58.576Z,95692.38
2022-11-09T11:37:35.277Z,95691.75
2022-11-09T11:40:10.728Z,95693.41
2022-11-09T11:43:00.052Z,95690.94
2022-11-09T11:45:41.433Z,95690.00
2022-11-09T11:48:22.068Z,95690.50
2022-11-09T11:50:47.997Z,95692.38
2022-11-09T11:53:21.154Z,95691.91
2022-11-09T11:56:00.429Z,95683.75
2022-11-09T11:58:33.567Z,95677.97
2022-11-09T12:01:01.523Z,95686.56
2022-11-09T12:03:41.044Z,95676.75
2022-11-09T12:06:43.951Z,95678.69
2022-11-09T12:09:21.652Z,95676.97
2022-11-09T12:11:57.202Z,95046.34
2022-11-09T12:14:29.162Z,95674.53
2022-11-09T12:16:56.476Z,95157.59
2022-11-09T12:19:35.834Z,95651.84
2022-11-09T12:22:03.579Z,95662.97
2022-11-09T12:24:34.699Z,95551.88
2022-11-09T12:30:04.018Z,95660.53
2022-11-09T12:32:32.611Z,95654.53
2022-11-09T12:34:58.818Z,95656.38
2022-11-09T12:37:26.578Z,95657.88
2022-11-09T12:39:53.782Z,95655.41
2022-11-09T12:42:20.903Z,95633.47
2022-11-09T12:44:47.954Z,95656.00
2022-11-09T12:47:15.305Z,95474.31
2022-11-09T12:49:38.539Z,95643.09
2022-11-09T12:52:00.047Z,95646.94
2022-11-09T12:54:21.764Z,95641.41
2022-11-09T12:56:52.760Z,95645.72
2022-11-09T12:59:22.222Z,95611.31
2022-11-09T13:01:51.396Z,95647.22
2022-11-09T13:04:18.565Z,95523.78
2022-11-09T13:06:39.968Z,95584.50
2022-11-09T13:09:03.367Z,95645.38
2022-11-09T13:11:35.722Z,95641.63
2022-11-09T13:14:34.372Z,95650.00
2022-11-09T13:16:57.075Z,95654.78
2022-11-09T13:19:50.001Z,95645.50
2022-11-09T13:22:43.551Z,95647.69
2022-11-09T13:25:27.057Z,95655.00
2022-11-09T13:27:50.123Z,95657.72
2022-11-09T13:30:51.358Z,95657.25
2022-11-09T13:33:26.471Z,95661.56
2022-11-09T13:36:19.022Z,95662.66
2022-11-09T13:38:40.929Z,95675.44
2022-11-09T13:41:03.430Z,95664.78
2022-11-09T13:43:29.397Z,95686.63
2022-11-09T13:45:53.804Z,95668.03
2022-11-09T13:48:43.764Z,95672.41
2022-11-09T13:51:08.060Z,95671.00
2022-11-09T13:53:32.000Z,95669.06
2022-11-09T13:55:53.154Z,95640.06
2022-11-09T13:58:22.426Z,95460.50
2022-11-09T14:00:48.083Z,95677.22
2022-11-09T14:03:19.526Z,95683.47
2022-11-09T14:05:41.581Z,95683.66
2022-11-09T14:08:05.139Z,95545.59
2022-11-09T14:10:46.355Z,95685.81
2022-11-09T14:13:29.374Z,95562.16
2022-11-09T14:15:58.309Z,95701.88
2022-11-09T14:18:32.164Z,95702.69
2022-11-09T14:20:59.773Z,95470.38
2022-11-09T14:23:23.794Z,95706.25
2022-11-09T14:25:45.464Z,95708.09
2022-11-09T14:28:22.201Z,95714.72
2022-11-09T14:30:46.051Z,95712.25
2022-11-09T14:33:23.521Z,95720.63
2022-11-09T14:35:45.419Z,95727.63
2022-11-09T14:38:18.527Z,95734.00
2022-11-09T14:40:45.754Z,95731.56
2022-11-09T14:43:23.426Z,95725.06
2022-11-09T14:45:49.941Z,95737.81
2022-11-09T14:48:18.977Z,95637.16
2022-11-09T14:50:40.736Z,95806.56
2022-11-09T14:53:03.473Z,95708.25
2022-11-09T14:55:26.437Z,95032.91
2022-11-09T14:57:48.798Z,95750.88
2022-11-09T15:00:27.575Z,95753.31
2022-11-09T15:02:48.733Z,95749.00
2022-11-09T15:05:38.931Z,95402.13
2022-11-09T15:08:01.603Z,95588.09
2022-11-09T15:10:25.640Z,95751.78
2022-11-09T15:12:51.878Z,95684.50
2022-11-09T15:15:21.204Z,95762.91
2022-11-09T15:17:46.944Z,95648.22
2022-11-09T15:20:28.393Z,95755.13
2022-11-09T15:22:54.106Z,95757.59
2022-11-09T15:25:25.477Z,95759.75
2022-11-09T15:27:58.526Z,95762.75
2022-11-09T15:30:32.939Z,95757.63
2022-11-09T15:32:54.417Z,95758.72
2022-11-09T15:35:18.787Z,95752.38
2022-11-09T15:37:50.477Z,95055.31
2022-11-09T15:40:15.302Z,95680.13
2022-11-09T15:42:36.430Z,95754.47
2022-11-09T15:44:58.960Z,95761.50
2022-11-09T15:47:24.098Z,95766.38
2022-11-09T15:49:45.491Z,95770.69
2022-11-09T15:52:06.715Z,95575.06
2022-11-09T15:54:27.896Z,95765.28
2022-11-09T15:56:51.327Z,95773.94
2022-11-09T15:59:19.844Z,95641.31
2022-11-09T16:01:40.996Z,95773.69
2022-11-09T16:04:02.117Z,95667.72
2022-11-09T16:06:23.603Z,95778.84
2022-11-09T16:08:44.899Z,95772.66
2022-11-09T16:11:07.762Z,95769.69
2022-11-09T16:13:30.177Z,95645.09
2022-11-09T16:15:51.310Z,95781.81
2022-11-09T16:18:12.580Z,95593.91
2022-11-09T16:20:33.738Z,95790.44
2022-11-09T16:22:55.086Z,95795.31
2022-11-09T16:25:16.804Z,95803.66
2022-11-09T16:27:53.774Z,95804.22
2022-11-09T16:30:16.792Z,95808.53
2022-11-09T16:32:38.353Z,95800.44
2022-11-09T16:35:23.512Z,95802.06
2022-11-09T16:37:42.035Z,95695.50
2022-11-09T16:40:08.019Z,95590.94
2022-11-09T16:42:29.208Z,95811.25
2022-11-09T16:44:50.749Z,95812.06
2022-11-09T16:47:15.363Z,95809.91
2022-11-09T16:49:36.842Z,95812.59
2022-11-09T16:51:58.172Z,95822.03
2022-11-09T16:54:19.576Z,95822.00
2022-11-09T16:56:40.726Z,95704.56
2022-11-09T16:59:02.198Z,95833.06
2022-11-09T17:01:24.014Z,95837.09
2022-11-09T17:03:46.947Z,95836.53
2022-11-09T17:06:10.921Z,95935.25
2022-11-09T17:08:32.318Z,95839.75
2022-11-09T17:10:53.325Z,95674.66
2022-11-09T17:13:14.801Z,95650.91
2022-11-09T17:15:39.626Z,95833.56
2022-11-09T17:18:01.101Z,95849.47
2022-11-09T17:20:23.826Z,95731.53
2022-11-09T17:22:46.346Z,95827.88
2022-11-09T17:25:08.663Z,95847.03
2022-11-09T17:27:30.309Z,95828.97
2022-11-09T17:29:52.351Z,95853.78
2022-11-09T17:32:13.765Z,95838.69
2022-11-09T17:34:35.516Z,95643.75
2022-11-09T17:37:04.127Z,95835.97
2022-11-09T17:39:26.248Z,95485.78
2022-11-09T17:41:47.470Z,95841.06
2022-11-09T17:44:08.692Z,95842.16
2022-11-09T17:46:29.988Z,95851.59
2022-11-09T17:48:51.403Z,95861.28
2022-11-09T17:51:13.887Z,95419.91
2022-11-09T17:53:37.279Z,95869.63
2022-11-09T17:55:58.590Z,95868.28
2022-11-09T17:58:20.268Z,95462.09
2022-11-09T18:00:41.984Z,95818.25
2022-11-09T18:03:03.415Z,95891.16
2022-11-09T18:05:24.708Z,95896.25
2022-11-09T18:07:46.103Z,95792.06
2022-11-09T18:10:10.078Z,95910.78
2022-11-09T18:12:31.666Z,95766.56
2022-11-09T18:14:53.065Z,95845.19
2022-11-09T18:17:14.327Z,95807.31
2022-11-09T18:19:35.659Z,95848.94
2022-11-09T18:21:56.728Z,95921.06
2022-11-09T18:24:17.787Z,95928.09
2022-11-09T18:26:40.388Z,95919.47
2022-11-09T18:29:01.559Z,95918.91
2022-11-09T18:31:22.881Z,95925.91
2022-11-09T18:33:44.614Z,95924.28
2022-11-09T18:36:09.130Z,95929.44
2022-11-09T18:38:31.331Z,95933.69
2022-11-09T18:41:04.621Z,95688.69
2022-11-09T18:43:27.233Z,95925.84
2022-11-09T18:45:55.415Z,95925.59
2022-11-09T18:48:16.713Z,95930.94
2022-11-09T18:50:39.413Z,95553.50
2022-11-09T18:53:01.186Z,95696.34
2022-11-09T18:55:22.683Z,95643.06
2022-11-09T18:57:44.395Z,95174.91
2022-11-09T19:00:08.351Z,95162.38
2022-11-09T19:02:29.815Z,95952.34
2022-11-09T19:04:50.928Z,95117.63
2022-11-09T19:07:12.346Z,95956.41
2022-11-09T19:09:37.072Z,95388.91
2022-11-09T19:11:59.450Z,95963.34
2022-11-09T19:14:20.910Z,95844.22
2022-11-09T19:16:43.883Z,95634.81
2022-11-09T19:19:05.451Z,95972.16
2022-11-09T19:21:35.660Z,95668.25
2022-11-09T19:23:57.537Z,95969.72
2022-11-09T19:26:19.244Z,95975.06
2022-11-09T19:28:40.490Z,95981.97
2022-11-09T19:31:01.554Z,95918.97
2022-11-09T19:33:24.139Z,95994.28
2022-11-09T19:36:01.787Z,95991.13
2022-11-09T19:38:26.961Z,95723.41
2022-11-09T19:40:48.139Z,96002.56
2022-11-09T19:43:09.319Z,95978.72
2022-11-09T19:45:30.494Z,96003.16
2022-11-09T19:47:52.073Z,96016.34
2022-11-09T19:50:14.867Z,96008.28
2022-11-09T19:52:37.395Z,95946.25
2022-11-09T19:54:58.954Z,96009.13
2022-11-09T19:57:20.444Z,95631.06
2022-11-09T19:59:41.565Z,95868.97
2022-11-09T20:02:02.808Z,96097.97
2022-11-09T20:04:24.131Z,95821.06
2022-11-09T20:06:46.872Z,95209.13
2022-11-09T20:09:08.445Z,96041.44
2022-11-09T20:11:47.831Z,96039.31
2022-11-09T20:14:10.915Z,96032.84
2022-11-09T20:16:33.629Z,95921.81
2022-11-09T20:18:55.267Z,96106.53
2022-11-09T20:21:16.620Z,95888.66
2022-11-09T20:23:39.317Z,96015.59
2022-11-09T20:26:05.187Z,96061.31
2022-11-09T20:28:26.816Z,95736.56
2022-11-09T20:30:48.079Z,95899.41
2022-11-09T20:33:10.550Z,96053.84
2022-11-09T20:35:31.853Z,96054.00
2022-11-09T20:37:53.364Z,96121.13
2022-11-09T20:40:16.517Z,96173.56
2022-11-09T20:42:37.721Z,96088.13
2022-11-09T20:44:59.067Z,96081.06
2022-11-09T20:47:41.951Z,96087.31
2022-11-09T20:50:01.877Z,96085.56
2022-11-09T20:52:23.153Z,96085.03
2022-11-09T20:54:44.410Z,95657.88
2022-11-09T20:57:07.152Z,95828.38
2022-11-09T20:59:28.924Z,95457.31
2022-11-09T21:01:50.636Z,96226.00
2022-11-09T21:04:12.341Z,95371.50
2022-11-09T21:06:34.205Z,95267.25
2022-11-09T21:08:56.941Z,95527.28
2022-11-09T21:11:18.792Z,94821.59
2022-11-09T21:13:43.974Z,95215.88
2022-11-09T21:16:07.082Z,96120.56
2022-11-09T21:18:28.137Z,96116.81
2022-11-09T21:20:49.400Z,96100.88
2022-11-09T21:23:28.911Z,96177.09
2022-11-09T21:26:07.674Z,96113.91
2022-11-09T21:28:52.811Z,96124.19
2022-11-09T21:31:15.677Z,95926.19
2022-11-09T21:33:37.396Z,96009.53
2022-11-09T21:35:58.984Z,96114.25
2022-11-09T21:38:20.548Z,96108.31
2022-11-09T21:40:42.089Z,95858.13
2022-11-09T21:43:03.193Z,96104.97
2022-11-09T21:45:24.310Z,96112.53
2022-11-09T21:47:46.821Z,96122.81
2022-11-09T21:50:12.548Z,96209.75
2022-11-09T21:52:34.558Z,95925.88
2022-11-09T21:54:56.364Z,95988.13
2022-11-09T21:57:17.663Z,96011.19
2022-11-09T21:59:38.905Z,96123.38
2022-11-09T22:01:59.996Z,96125.50
2022-11-09T22:04:22.446Z,96138.19
2022-11-09T22:06:44.190Z,96165.13
2022-11-09T22:09:06.922Z,96131.50
2022-11-09T22:11:42.127Z,96137.94
2022-11-09T22:14:21.123Z,96147.59
2022-11-09T22:16:42.816Z,96148.97
2022-11-09T22:19:22.195Z,96159.19
2022-11-09T22:21:45.069Z,96152.72
2022-11-09T22:24:07.001Z,96153.72
2022-11-09T22:26:29.709Z,96163.44
2022-11-09T22:28:51.114Z,96110.72
2022-11-09T22:31:13.525Z,96029.56
2022-11-09T22:33:35.469Z,96166.97
2022-11-09T22:35:57.571Z,96180.22
2022-11-09T22:38:20.434Z,96107.03
2022-11-09T22:40:41.788Z,96172.59
2022-11-09T22:43:03.083Z,96162.03
2022-11-09T22:45:24.312Z,96192.13
2022-11-09T22:47:45.434Z,96185.63
2022-11-09T22:50:07.423Z,96130.13
2022-11-09T22:52:29.005Z,96192.88
2022-11-09T22:54:51.513Z,96190.88
2022-11-09T22:57:12.862Z,96201.22
2022-11-09T22:59:33.988Z,95806.94
2022-11-09T23:01:55.216Z,96212.03
2022-11-09T23:04:16.803Z,96208.09
2022-11-09T23:06:38.106Z,96212.66
2022-11-09T23:08:59.296Z,96217.03
2022-11-09T23:11:23.528Z,96084.31
2022-11-09T23:13:45.253Z,96238.78
2022-11-09T23:16:09.581Z,96288.66
2022-11-09T23:18:49.239Z,96169.56
2022-11-09T23:21:10.884Z,96243.63
2022-11-09T23:23:32.302Z,96246.75
2022-11-09T23:25:56.426Z,96019.41
2022-11-09T23:28:20.944Z,96256.44
2022-11-09T23:30:42.175Z,96252.84
2022-11-09T23:33:03.689Z,96259.91
2022-11-09T23:35:25.188Z,96261.63
2022-11-09T23:37:46.636Z,96073.50
2022-11-09T23:40:09.603Z,96263.81
2022-11-09T23:42:30.977Z,96261.13
2022-11-09T23:44:53.601Z,96258.44
2022-11-09T23:47:14.523Z,96116.50
2022-11-09T23:49:35.574Z,96229.69
2022-11-09T23:51:56.709Z,96038.59
2022-11-09T23:54:17.909Z,96280.50
2022-11-09T23:56:38.972Z,96271.88
2022-11-09T23:59:00.204Z,96268.19
